createdAt,value
2018-07-23T00:00:07.721Z,99.90
2018-07-23T00:02:36.834Z,99.90
2018-07-23T00:05:06.006Z,99.90
2018-07-23T00:07:35.144Z,99.90
2018-07-23T00:10:04.312Z,99.90
2018-07-23T00:12:33.551Z,99.90
2018-07-23T00:15:02.648Z,99.90
2018-07-23T00:17:31.769Z,99.90
2018-07-23T00:20:00.967Z,99.90
2018-07-23T00:22:30.129Z,99.90
2018-07-23T00:24:59.301Z,99.90
2018-07-23T00:27:28.434Z,99.90
2018-07-23T00:29:57.583Z,99.90
2018-07-23T00:32:26.729Z,99.90
2018-07-23T00:34:55.922Z,99.90
2018-07-23T00:37:25.083Z,99.90
2018-07-23T00:39:54.238Z,99.90
2018-07-23T00:42:23.412Z,99.90
2018-07-23T00:44:52.557Z,99.90
2018-07-23T00:47:21.717Z,99.90
2018-07-23T00:49:50.964Z,99.90
2018-07-23T00:52:20.162Z,99.90
2018-07-23T00:54:49.297Z,99.90
2018-07-23T00:57:18.653Z,99.90
2018-07-23T00:59:47.800Z,99.90
2018-07-23T01:02:16.999Z,99.90
2018-07-23T01:04:46.126Z,99.90
2018-07-23T01:07:15.298Z,99.90
2018-07-23T01:09:44.418Z,99.90
2018-07-23T01:12:18.545Z,99.90
2018-07-23T01:14:47.706Z,99.90
2018-07-23T01:17:16.842Z,99.90
2018-07-23T01:19:45.925Z,99.90
2018-07-23T01:22:15.089Z,99.90
2018-07-23T01:24:44.217Z,99.90
2018-07-23T01:27:13.394Z,99.70
2018-07-23T01:29:42.521Z,99.90
2018-07-23T01:32:11.770Z,99.90
2018-07-23T01:34:40.904Z,99.90
2018-07-23T01:37:12.974Z,99.90
2018-07-23T01:39:42.165Z,99.90
2018-07-23T01:42:11.488Z,99.90
2018-07-23T01:44:40.664Z,99.90
2018-07-23T01:47:10.728Z,99.90
2018-07-23T01:49:39.877Z,99.90
2018-07-23T01:52:09.028Z,99.90
2018-07-23T01:54:38.159Z,99.90
2018-07-23T01:57:07.313Z,99.90
2018-07-23T01:59:36.503Z,99.90
2018-07-23T02:02:05.596Z,99.90
2018-07-23T02:04:38.974Z,99.90
2018-07-23T02:07:08.505Z,99.90
2018-07-23T02:09:37.645Z,99.90
2018-07-23T02:12:06.862Z,99.90
2018-07-23T02:14:35.985Z,99.90
2018-07-23T02:17:05.301Z,99.90
2018-07-23T02:19:34.437Z,99.90
2018-07-23T02:22:03.608Z,99.50
2018-07-23T02:24:32.749Z,99.70
2018-07-23T02:27:01.866Z,99.90
2018-07-23T02:29:31.035Z,99.90
2018-07-23T02:32:00.178Z,99.90
2018-07-23T02:34:29.301Z,99.90
2018-07-23T02:36:58.429Z,99.80
2018-07-23T02:39:27.691Z,99.90
2018-07-23T02:41:56.825Z,99.90
2018-07-23T02:44:26.006Z,99.90
2018-07-23T02:46:55.166Z,99.90
2018-07-23T02:49:24.701Z,99.90
2018-07-23T02:51:53.913Z,99.90
2018-07-23T02:54:23.100Z,99.90
2018-07-23T02:56:52.196Z,99.90
2018-07-23T02:59:21.363Z,99.90
2018-07-23T03:01:50.516Z,99.80
2018-07-23T03:04:19.643Z,99.80
2018-07-23T03:06:48.770Z,99.90
2018-07-23T03:09:17.918Z,99.90
2018-07-23T03:11:47.077Z,99.80
2018-07-23T03:14:16.258Z,99.90
2018-07-23T03:16:45.467Z,99.90
2018-07-23T03:19:14.616Z,99.90
2018-07-23T03:21:43.878Z,99.90
2018-07-23T03:24:12.979Z,99.90
2018-07-23T03:26:42.149Z,99.90
2018-07-23T03:29:11.265Z,99.80
2018-07-23T03:31:40.458Z,99.70
2018-07-23T03:34:09.572Z,99.90
2018-07-23T03:36:38.737Z,99.90
2018-07-23T03:39:09.356Z,99.90
2018-07-23T03:41:38.625Z,99.90
2018-07-23T03:44:07.943Z,99.90
2018-07-23T03:46:37.135Z,99.90
2018-07-23T03:49:06.623Z,99.90
2018-07-23T03:51:35.824Z,99.90
2018-07-23T03:54:05.022Z,99.90
2018-07-23T03:56:34.276Z,99.90
2018-07-23T03:59:03.440Z,99.90
2018-07-23T04:01:32.577Z,99.90
2018-07-23T04:04:01.760Z,99.90
2018-07-23T04:06:30.887Z,99.90
2018-07-23T04:09:00.054Z,99.90
2018-07-23T04:11:29.920Z,99.90
2018-07-23T04:13:59.031Z,99.90
2018-07-23T04:16:29.175Z,99.90
2018-07-23T04:18:58.370Z,99.90
2018-07-23T04:21:27.940Z,99.90
2018-07-23T04:23:57.134Z,99.90
2018-07-23T04:26:26.329Z,99.90
2018-07-23T04:28:56.664Z,99.90
2018-07-23T04:31:25.903Z,99.80
2018-07-23T04:33:55.055Z,99.90
2018-07-23T04:36:24.276Z,99.90
2018-07-23T04:38:54.056Z,99.90
2018-07-23T04:41:23.233Z,99.80
2018-07-23T04:43:52.934Z,99.80
2018-07-23T04:46:22.135Z,99.90
2018-07-23T04:48:51.322Z,99.80
2018-07-23T04:51:20.516Z,99.90
2018-07-23T04:53:49.641Z,99.90
2018-07-23T04:56:18.865Z,99.80
2018-07-23T04:58:48.061Z,99.40
2018-07-23T05:01:17.305Z,99.30
2018-07-23T05:03:46.446Z,99.40
2018-07-23T05:06:16.312Z,99.30
2018-07-23T05:08:45.520Z,99.30
2018-07-23T05:11:14.665Z,98.90
2018-07-23T05:13:43.865Z,98.90
2018-07-23T05:16:13.029Z,99.10
2018-07-23T05:18:42.271Z,99.40
2018-07-23T05:21:12.191Z,99.00
2018-07-23T05:23:41.483Z,98.60
2018-07-23T05:26:10.692Z,98.50
2018-07-23T05:28:39.845Z,98.20
2018-07-23T05:31:08.992Z,98.60
2018-07-23T05:33:38.135Z,98.60
2018-07-23T05:36:07.456Z,98.80
2018-07-23T05:38:36.681Z,98.60
2018-07-23T05:41:06.380Z,98.80
2018-07-23T05:43:35.550Z,98.70
2018-07-23T05:46:04.807Z,98.70
2018-07-23T05:48:34.085Z,98.60
2018-07-23T05:51:04.225Z,98.80
2018-07-23T05:53:34.773Z,98.60
2018-07-23T05:56:04.237Z,98.40
2018-07-23T05:58:35.061Z,98.40
2018-07-23T06:01:04.282Z,98.40
2018-07-23T06:03:34.801Z,99.00
2018-07-23T06:06:03.993Z,98.70
2018-07-23T06:08:33.194Z,98.10
2018-07-23T06:11:03.339Z,98.30
2018-07-23T06:13:32.549Z,97.20
2018-07-23T06:16:01.691Z,97.00
2018-07-23T06:18:31.040Z,96.90
2018-07-23T06:21:01.488Z,97.00
2018-07-23T06:23:31.350Z,97.20
2018-07-23T06:26:00.612Z,97.40
2018-07-23T06:28:29.999Z,97.60
2018-07-23T06:30:59.281Z,97.40
2018-07-23T06:33:29.309Z,97.60
2018-07-23T06:35:58.477Z,97.30
2018-07-23T06:38:27.667Z,97.30
2018-07-23T06:40:57.520Z,96.90
2018-07-23T06:43:27.412Z,96.60
2018-07-23T06:45:56.837Z,96.50
2018-07-23T06:48:26.082Z,96.30
2018-07-23T06:50:55.368Z,96.40
2018-07-23T06:53:24.508Z,96.90
2018-07-23T06:55:53.678Z,96.90
2018-07-23T06:58:22.931Z,96.90
2018-07-23T07:00:54.642Z,96.50
2018-07-23T07:03:26.175Z,95.90
2018-07-23T07:05:57.798Z,96.20
2018-07-23T07:08:26.982Z,96.20
2018-07-23T07:10:56.399Z,95.80
2018-07-23T07:13:25.553Z,95.70
2018-07-23T07:15:54.650Z,95.90
2018-07-23T07:18:23.793Z,95.70
2018-07-23T07:20:52.999Z,95.80
2018-07-23T07:23:22.144Z,95.30
2018-07-23T07:28:20.098Z,95.20
2018-07-23T07:30:49.309Z,94.90
2018-07-23T07:33:18.506Z,94.80
2018-07-23T07:35:47.978Z,94.60
2018-07-23T07:38:17.239Z,94.20
2018-07-23T07:40:46.332Z,93.90
2018-07-23T07:45:44.247Z,93.80
2018-07-23T07:48:13.436Z,93.80
2018-07-23T07:50:42.573Z,93.60
2018-07-23T07:53:11.749Z,92.70
2018-07-23T07:55:40.890Z,92.20
2018-07-23T07:58:10.065Z,90.50
2018-07-23T08:00:39.854Z,89.10
2018-07-23T08:03:09.582Z,87.50
2018-07-23T08:05:38.724Z,84.70
2018-07-23T08:08:08.085Z,82.80
2018-07-23T08:10:37.255Z,81.50
2018-07-23T08:13:06.509Z,79.80
2018-07-23T08:15:36.167Z,78.20
2018-07-23T08:18:05.444Z,77.10
2018-07-23T08:23:03.585Z,74.80
2018-07-23T08:25:33.739Z,72.40
2018-07-23T08:28:02.982Z,70.40
2018-07-23T08:30:32.175Z,69.80
2018-07-23T08:33:02.223Z,70.80
2018-07-23T08:35:31.378Z,70.50
2018-07-23T08:38:00.578Z,68.70
2018-07-23T08:40:29.837Z,66.80
2018-07-23T08:42:59.086Z,67.80
2018-07-23T08:45:28.324Z,66.90
2018-07-23T08:47:57.590Z,66.60
2018-07-23T08:50:26.861Z,67.10
2018-07-23T08:52:56.122Z,69.60
2018-07-23T08:55:25.388Z,70.30
2018-07-23T08:57:54.631Z,72.50
2018-07-23T09:00:23.800Z,74.70
2018-07-23T09:02:53.009Z,78.10
2018-07-23T09:05:22.228Z,80.90
2018-07-23T09:07:51.478Z,82.40
2018-07-23T09:10:20.690Z,83.20
2018-07-23T09:12:49.931Z,85.30
2018-07-23T09:15:19.124Z,85.70
2018-07-23T09:17:48.365Z,85.40
2018-07-23T09:20:17.572Z,84.40
2018-07-23T09:22:46.782Z,84.60
2018-07-23T09:25:15.946Z,84.60
2018-07-23T09:27:45.125Z,84.30
2018-07-23T09:30:19.460Z,83.80
2018-07-23T09:32:48.626Z,84.00
2018-07-23T09:35:17.829Z,83.80
2018-07-23T09:37:47.166Z,83.50
2018-07-23T09:42:45.686Z,84.70
2018-07-23T09:45:14.909Z,84.70
2018-07-23T09:47:44.062Z,83.90
2018-07-23T09:50:13.256Z,83.20
2018-07-23T09:52:42.838Z,83.00
2018-07-23T09:55:12.385Z,82.70
2018-07-23T09:57:41.708Z,81.50
2018-07-23T10:00:11.143Z,81.70
2018-07-23T10:02:42.275Z,81.80
2018-07-23T10:05:11.466Z,79.90
2018-07-23T10:07:40.718Z,79.10
2018-07-23T10:10:09.963Z,78.40
2018-07-23T10:12:39.174Z,77.70
2018-07-23T10:15:08.366Z,77.60
2018-07-23T10:17:37.578Z,77.40
2018-07-23T10:20:07.017Z,77.40
2018-07-23T10:22:36.237Z,78.30
2018-07-23T10:25:05.568Z,77.40
2018-07-23T10:27:34.807Z,77.70
2018-07-23T10:30:04.970Z,77.90
2018-07-23T10:32:34.505Z,78.00
2018-07-23T10:35:03.952Z,78.00
2018-07-23T10:37:33.029Z,77.00
2018-07-23T10:40:02.234Z,77.60
2018-07-23T10:42:31.435Z,77.30
2018-07-23T10:45:00.676Z,76.80
2018-07-23T10:47:29.907Z,75.90
2018-07-23T10:49:59.109Z,75.80
2018-07-23T10:52:28.327Z,76.40
2018-07-23T10:54:57.578Z,76.00
2018-07-23T10:57:26.865Z,77.10
2018-07-23T10:59:56.087Z,76.20
2018-07-23T11:02:25.354Z,76.70
2018-07-23T11:04:54.562Z,75.90
2018-07-23T11:07:23.820Z,75.40
2018-07-23T11:09:52.978Z,74.80
2018-07-23T11:12:22.220Z,75.50
2018-07-23T11:14:51.475Z,75.70
2018-07-23T11:19:49.632Z,73.60
2018-07-23T11:22:18.838Z,75.30
2018-07-23T11:24:48.074Z,75.30
2018-07-23T11:27:17.250Z,74.30
2018-07-23T11:29:46.438Z,74.00
2018-07-23T11:32:15.664Z,74.30
2018-07-23T11:34:44.884Z,73.60
2018-07-23T11:37:14.181Z,73.10
2018-07-23T11:39:43.484Z,72.80
2018-07-23T11:42:12.686Z,72.00
2018-07-23T11:44:41.935Z,72.00
2018-07-23T11:47:11.380Z,71.40
2018-07-23T11:49:40.530Z,71.30
2018-07-23T11:52:14.362Z,69.80
2018-07-23T11:57:07.716Z,70.40
2018-07-23T11:59:37.039Z,70.70
2018-07-23T12:02:07.092Z,71.10
2018-07-23T12:04:36.516Z,71.20
2018-07-23T12:07:06.309Z,70.90
2018-07-23T12:09:35.517Z,70.80
2018-07-23T12:12:04.732Z,70.70
2018-07-23T12:14:33.966Z,69.90
2018-07-23T12:17:03.265Z,69.60
2018-07-23T12:19:32.386Z,69.20
2018-07-23T12:22:01.558Z,70.40
2018-07-23T12:26:59.650Z,68.90
2018-07-23T12:29:28.893Z,68.50
2018-07-23T12:31:58.140Z,67.80
2018-07-23T12:34:27.367Z,67.00
2018-07-23T12:36:56.630Z,67.50
2018-07-23T12:39:25.853Z,66.90
2018-07-23T12:41:55.059Z,66.80
2018-07-23T12:44:24.247Z,65.00
2018-07-23T12:46:53.432Z,64.70
2018-07-23T12:49:22.633Z,63.20
2018-07-23T12:51:51.850Z,64.60
2018-07-23T12:56:49.837Z,64.70
2018-07-23T12:59:19.078Z,65.20
2018-07-23T13:01:48.317Z,63.90
2018-07-23T13:04:17.536Z,64.20
2018-07-23T13:06:46.859Z,63.40
2018-07-23T13:09:16.311Z,61.10
2018-07-23T13:11:45.471Z,62.40
2018-07-23T13:14:14.719Z,60.30
2018-07-23T13:16:43.948Z,61.70
2018-07-23T13:19:13.354Z,61.10
2018-07-23T13:21:42.596Z,60.60
2018-07-23T13:24:11.819Z,61.20
2018-07-23T13:26:41.053Z,60.10
2018-07-23T13:29:10.281Z,60.10
2018-07-23T13:31:40.271Z,59.30
2018-07-23T13:34:09.513Z,60.40
2018-07-23T13:36:38.701Z,60.60
2018-07-23T13:39:10.026Z,60.40
2018-07-23T13:41:39.224Z,59.90
2018-07-23T13:44:09.430Z,58.70
2018-07-23T13:46:38.952Z,58.70
2018-07-23T13:49:08.133Z,58.70
2018-07-23T13:51:37.352Z,59.40
2018-07-23T13:54:06.591Z,58.70
2018-07-23T13:56:35.835Z,58.80
2018-07-23T13:59:05.059Z,58.90
2018-07-23T14:01:34.292Z,59.10
2018-07-23T14:04:03.438Z,60.10
2018-07-23T14:06:32.673Z,59.40
2018-07-23T14:09:01.869Z,60.50
2018-07-23T14:11:31.068Z,59.50
2018-07-23T14:14:00.286Z,60.20
2018-07-23T14:16:29.454Z,60.90
2018-07-23T14:18:58.630Z,61.20
2018-07-23T14:21:27.837Z,61.00
2018-07-23T14:23:57.021Z,61.70
2018-07-23T14:26:26.251Z,61.10
2018-07-23T14:28:55.449Z,61.60
2018-07-23T14:31:24.653Z,62.40
2018-07-23T14:33:53.838Z,61.80
2018-07-23T14:36:23.085Z,60.30
2018-07-23T14:38:52.434Z,60.90
2018-07-23T14:41:21.633Z,61.30
2018-07-23T14:43:51.452Z,62.70
2018-07-23T14:46:20.554Z,62.90
2018-07-23T14:48:50.053Z,62.90
2018-07-23T14:51:19.191Z,62.90
2018-07-23T14:56:17.174Z,62.70
2018-07-23T14:58:46.358Z,62.60
2018-07-23T15:01:15.522Z,62.50
2018-07-23T15:03:44.705Z,62.40
2018-07-23T15:06:14.035Z,61.90
2018-07-23T15:08:43.206Z,62.50
2018-07-23T15:11:12.426Z,62.30
2018-07-23T15:13:42.335Z,63.00
2018-07-23T15:16:11.446Z,63.20
2018-07-23T15:18:40.614Z,63.60
2018-07-23T15:21:09.832Z,64.00
2018-07-23T15:23:39.028Z,63.30
2018-07-23T15:26:08.225Z,63.50
2018-07-23T15:28:37.405Z,63.20
2018-07-23T15:31:06.645Z,63.40
2018-07-23T15:33:35.840Z,64.20
2018-07-23T15:36:06.072Z,63.20
2018-07-23T15:38:35.257Z,62.70
2018-07-23T15:41:05.875Z,63.70
2018-07-23T15:43:35.045Z,63.20
2018-07-23T15:46:04.304Z,63.50
2018-07-23T15:48:33.518Z,63.20
2018-07-23T15:51:03.309Z,63.10
2018-07-23T15:53:32.670Z,63.20
2018-07-23T15:56:03.171Z,63.20
2018-07-23T15:58:32.417Z,63.20
2018-07-23T16:01:01.657Z,63.60
2018-07-23T16:03:30.866Z,62.90
2018-07-23T16:06:00.049Z,63.40
2018-07-23T16:08:29.247Z,63.30
2018-07-23T16:10:58.418Z,63.30
2018-07-23T16:13:27.578Z,63.80
2018-07-23T16:15:57.493Z,64.10
2018-07-23T16:18:26.658Z,64.80
2018-07-23T16:20:55.842Z,64.50
2018-07-23T16:23:25.094Z,64.00
2018-07-23T16:25:54.531Z,64.20
2018-07-23T16:28:23.898Z,63.90
2018-07-23T16:30:53.360Z,63.40
2018-07-23T16:33:22.529Z,63.80
2018-07-23T16:35:51.713Z,64.00
2018-07-23T16:38:20.954Z,64.10
2018-07-23T16:40:50.213Z,64.30
2018-07-23T16:43:19.742Z,64.50
2018-07-23T16:45:48.925Z,64.40
2018-07-23T16:48:18.082Z,64.40
2018-07-23T16:50:47.400Z,65.40
2018-07-23T16:53:16.562Z,65.70
2018-07-23T16:55:45.886Z,65.40
2018-07-23T16:58:15.116Z,65.50
2018-07-23T17:00:44.442Z,65.20
2018-07-23T17:03:13.785Z,65.00
2018-07-23T17:05:47.592Z,65.20
2018-07-23T17:08:17.329Z,65.10
2018-07-23T17:10:46.622Z,65.50
2018-07-23T17:13:15.783Z,65.50
2018-07-23T17:15:45.061Z,65.40
2018-07-23T17:18:14.284Z,65.90
2018-07-23T17:20:44.165Z,66.10
2018-07-23T17:23:13.548Z,66.30
2018-07-23T17:25:42.732Z,66.50
2018-07-23T17:28:12.033Z,66.60
2018-07-23T17:30:42.257Z,66.80
2018-07-23T17:33:11.413Z,67.30
2018-07-23T17:35:40.728Z,67.50
2018-07-23T17:38:09.835Z,67.80
2018-07-23T17:40:39.087Z,68.00
2018-07-23T17:43:08.259Z,68.00
2018-07-23T17:45:37.542Z,68.20
2018-07-23T17:48:06.786Z,68.60
2018-07-23T17:50:35.990Z,68.80
2018-07-23T17:53:05.586Z,69.20
2018-07-23T17:55:34.860Z,69.40
2018-07-23T17:58:04.116Z,69.60
2018-07-23T18:00:33.344Z,69.50
2018-07-23T18:03:02.538Z,69.60
2018-07-23T18:05:31.756Z,69.50
2018-07-23T18:08:01.013Z,70.00
2018-07-23T18:10:30.197Z,70.00
2018-07-23T18:12:59.608Z,70.00
2018-07-23T18:15:28.998Z,70.10
2018-07-23T18:17:58.657Z,70.10
2018-07-23T18:20:27.930Z,69.60
2018-07-23T18:22:58.472Z,69.40
2018-07-23T18:25:27.665Z,69.20
2018-07-23T18:27:56.859Z,69.50
2018-07-23T18:30:26.189Z,69.50
2018-07-23T18:33:01.819Z,69.80
2018-07-23T18:35:31.029Z,70.00
2018-07-23T18:38:00.663Z,70.10
2018-07-23T18:40:29.878Z,70.70
2018-07-23T18:45:27.966Z,70.60
2018-07-23T18:47:57.209Z,70.60
2018-07-23T18:50:26.379Z,70.90
2018-07-23T18:52:55.651Z,71.10
2018-07-23T18:55:25.597Z,71.00
2018-07-23T18:57:54.875Z,71.20
2018-07-23T19:00:24.071Z,71.20
2018-07-23T19:02:53.289Z,71.30
2018-07-23T19:05:22.412Z,71.40
2018-07-23T19:07:51.602Z,71.30
2018-07-23T19:10:20.859Z,72.80
2018-07-23T19:12:50.022Z,73.50
2018-07-23T19:15:21.752Z,74.20
2018-07-23T19:17:50.925Z,73.70
2018-07-23T19:20:20.126Z,74.00
2018-07-23T19:22:49.214Z,74.00
2018-07-23T19:25:18.322Z,74.40
2018-07-23T19:27:47.528Z,74.20
2018-07-23T19:30:16.813Z,74.80
2018-07-23T19:32:46.694Z,75.40
2018-07-23T19:35:15.993Z,75.90
2018-07-23T19:37:45.236Z,75.60
2018-07-23T19:40:14.401Z,75.40
2018-07-23T19:42:43.613Z,75.80
2018-07-23T19:45:12.856Z,75.80
2018-07-23T19:47:42.095Z,75.90
2018-07-23T19:50:11.195Z,76.10
2018-07-23T19:52:40.426Z,76.00
2018-07-23T19:55:09.653Z,76.60
2018-07-23T19:57:38.792Z,76.90
2018-07-23T20:00:08.855Z,76.60
2018-07-23T20:02:37.941Z,77.60
2018-07-23T20:05:07.165Z,77.20
2018-07-23T20:07:36.333Z,77.80
2018-07-23T20:10:05.979Z,77.90
2018-07-23T20:12:36.132Z,78.10
2018-07-23T20:15:06.248Z,78.30
2018-07-23T20:20:06.170Z,78.90
2018-07-23T20:22:35.334Z,79.20
2018-07-23T20:25:04.605Z,79.20
2018-07-23T20:27:33.929Z,79.80
2018-07-23T20:30:03.097Z,80.00
2018-07-23T20:32:32.399Z,80.40
2018-07-23T20:35:01.658Z,80.40
2018-07-23T20:39:59.976Z,80.40
2018-07-23T20:42:30.604Z,80.70
2018-07-23T20:44:59.820Z,80.90
2018-07-23T20:47:29.085Z,81.20
2018-07-23T20:49:58.329Z,81.10
2018-07-23T20:52:27.502Z,81.00
2018-07-23T20:54:56.733Z,81.20
2018-07-23T20:57:25.931Z,80.90
2018-07-23T20:59:56.170Z,81.60
2018-07-23T21:02:25.758Z,81.40
2018-07-23T21:04:54.990Z,81.50
2018-07-23T21:07:24.271Z,81.40
2018-07-23T21:09:53.440Z,81.50
2018-07-23T21:12:22.587Z,81.50
2018-07-23T21:14:51.814Z,81.30
2018-07-23T21:17:20.918Z,81.10
2018-07-23T21:19:50.172Z,81.20
2018-07-23T21:22:19.498Z,81.50
2018-07-23T21:24:48.670Z,81.60
2018-07-23T21:27:18.550Z,81.40
2018-07-23T21:29:48.022Z,81.90
2018-07-23T21:32:17.222Z,81.70
2018-07-23T21:34:46.435Z,82.30
2018-07-23T21:37:16.623Z,82.80
2018-07-23T21:39:45.846Z,82.90
2018-07-23T21:42:15.104Z,82.90
2018-07-23T21:44:44.303Z,82.80
2018-07-23T21:47:13.579Z,82.90
2018-07-23T21:49:42.778Z,83.30
2018-07-23T21:52:12.105Z,83.80
2018-07-23T21:54:41.321Z,84.00
2018-07-23T21:57:10.581Z,84.50
2018-07-23T21:59:40.254Z,85.10
2018-07-23T22:04:39.075Z,85.20
2018-07-23T22:07:08.311Z,84.90
2018-07-23T22:09:37.629Z,84.70
2018-07-23T22:12:06.886Z,84.70
2018-07-23T22:14:36.045Z,84.10
2018-07-23T22:17:05.306Z,84.00
2018-07-23T22:19:34.474Z,84.80
2018-07-23T22:22:03.697Z,84.20
2018-07-23T22:24:33.120Z,85.10
2018-07-23T22:27:02.263Z,84.90
2018-07-23T22:29:31.398Z,85.20
2018-07-23T22:32:00.575Z,85.30
2018-07-23T22:34:29.729Z,86.20
2018-07-23T22:36:58.878Z,86.70
2018-07-23T22:39:28.050Z,87.40
2018-07-23T22:41:57.192Z,87.80
2018-07-23T22:44:26.345Z,87.20
2018-07-23T22:46:55.596Z,86.90
2018-07-23T22:49:24.705Z,87.10
2018-07-23T22:51:53.855Z,86.90
2018-07-23T22:54:22.986Z,86.90
2018-07-23T22:56:52.171Z,87.20
2018-07-23T22:59:21.425Z,88.00
2018-07-23T23:01:50.533Z,88.40
2018-07-23T23:04:19.828Z,88.80
2018-07-23T23:06:49.184Z,88.80
2018-07-23T23:09:18.499Z,89.10
2018-07-23T23:11:47.777Z,88.80
2018-07-23T23:14:17.058Z,88.80
2018-07-23T23:16:46.289Z,89.00
2018-07-23T23:19:15.468Z,89.00
2018-07-23T23:21:44.628Z,89.10
2018-07-23T23:24:13.913Z,88.80
2018-07-23T23:26:43.086Z,89.20
2018-07-23T23:29:12.183Z,88.90
2018-07-23T23:31:41.361Z,89.20
2018-07-23T23:34:10.565Z,89.30
2018-07-23T23:36:39.697Z,89.30
2018-07-23T23:41:38.605Z,89.00
2018-07-23T23:44:07.837Z,88.90
2018-07-23T23:46:37.025Z,89.00
2018-07-23T23:49:06.337Z,89.30
2018-07-23T23:51:35.460Z,89.20
2018-07-23T23:54:04.633Z,89.20
2018-07-23T23:56:33.786Z,89.60
2018-07-23T23:59:02.950Z,90.00
